Time;durP1;ratioP1;P1;durP2;ratioP2;P2;SDS_P1;SDS_P2;PMS_P1;PMS_P2;Temp;Humidity;BMP_temperature;BMP_pressure;BME280_temperature;BME280_humidity;BME280_pressure;Samples;Min_cycle;Max_cycle;Signal;HPM_P1;HPM_P2
2021/08/22 00:00:28;;;;;;;6.93;5.77;;;20.40;99.90;;;;;;5096276;28;20823;-65
2021/08/22 00:02:54;;;;;;;8.67;6.13;;;20.40;99.90;;;;;;5096727;28;20479;-65
2021/08/22 00:05:20;;;;;;;9.80;6.90;;;20.40;99.90;;;;;;5096254;28;20429;-65
2021/08/22 00:07:45;;;;;;;9.63;6.60;;;20.30;99.90;;;;;;5129332;27;20182;-66
2021/08/22 00:10:11;;;;;;;8.00;5.83;;;20.30;99.90;;;;;;5095309;28;20650;-65
2021/08/22 00:12:38;;;;;;;10.07;6.37;;;20.30;99.90;;;;;;5095009;28;20267;-65
2021/08/22 00:15:04;;;;;;;8.00;5.97;;;20.30;99.90;;;;;;5096069;28;20416;-65
2021/08/22 00:17:30;;;;;;;10.23;6.30;;;20.20;99.90;;;;;;5096512;28;20491;-65
2021/08/22 00:19:55;;;;;;;13.20;7.37;;;20.20;99.90;;;;;;5111683;28;20564;-65
2021/08/22 00:22:21;;;;;;;9.13;6.83;;;20.20;99.90;;;;;;5095919;28;20576;-66
2021/08/22 00:24:47;;;;;;;10.40;6.77;;;20.10;99.90;;;;;;5095894;28;20242;-65
2021/08/22 00:27:13;;;;;;;8.03;5.93;;;20.10;99.90;;;;;;5096062;28;20422;-66
2021/08/22 00:29:38;;;;;;;9.07;5.90;;;20.10;99.90;;;;;;5095934;28;20189;-65
2021/08/22 00:32:05;;;;;;;10.60;7.00;;;20.10;99.90;;;;;;5095980;28;20238;-65
2021/08/22 00:34:31;;;;;;;13.70;6.43;;;20.10;99.90;;;;;;5128636;27;20182;-65
2021/08/22 00:36:56;;;;;;;9.80;7.00;;;20.10;99.90;;;;;;5095707;28;20506;-65
2021/08/22 00:39:29;;;;;;;11.33;6.90;;;20.00;99.90;;;;;;5111278;28;20670;-64
2021/08/22 00:41:55;;;;;;;7.80;5.97;;;20.00;99.90;;;;;;5095574;28;20173;-65
2021/08/22 00:44:22;;;;;;;6.80;5.90;;;20.00;99.90;;;;;;5095493;28;20414;-65
2021/08/22 00:46:50;;;;;;;8.97;6.10;;;20.00;99.90;;;;;;5095615;28;20859;-66
2021/08/22 00:49:16;;;;;;;10.83;7.20;;;20.00;99.90;;;;;;5095369;28;20409;-64
2021/08/22 00:51:43;;;;;;;10.40;6.93;;;19.90;99.90;;;;;;5095426;28;20918;-65
2021/08/22 00:54:09;;;;;;;10.40;5.97;;;19.90;99.90;;;;;;5095341;28;20180;-65
2021/08/22 00:56:35;;;;;;;14.23;6.90;;;19.80;99.90;;;;;;5095181;28;20463;-65
2021/08/22 00:59:05;;;;;;;13.90;6.57;;;19.80;99.90;;;;;;5095180;28;20468;-66
2021/08/22 01:01:33;;;;;;;11.07;7.50;;;19.80;99.90;;;;;;5095144;28;20185;-64
2021/08/22 01:04:17;;;;;;;13.10;6.30;;;19.80;99.90;;;;;;5095200;28;20470;-65
2021/08/22 01:07:04;;;;;;;9.30;6.37;;;19.70;99.90;;;;;;5110826;28;20933;-65
2021/08/22 01:09:43;;;;;;;14.20;6.60;;;19.70;99.90;;;;;;5095129;28;20883;-65
2021/08/22 01:12:16;;;;;;;10.87;6.90;;;19.60;99.90;;;;;;5095218;28;20417;-65
2021/08/22 01:14:47;;;;;;;10.23;6.83;;;19.60;99.90;;;;;;5095040;28;20421;-65
2021/08/22 01:17:16;;;;;;;11.00;6.83;;;19.50;99.90;;;;;;5095185;28;20463;-65
2021/08/22 01:20:29;;;;;;;10.20;6.47;;;19.50;99.90;;;;;;5094746;28;20549;-65
2021/08/22 01:22:56;;;;;;;6.70;6.00;;;19.40;99.90;;;;;;5047014;28;20946;-64
2021/08/22 01:25:22;;;;;;;8.43;7.03;;;19.40;99.90;;;;;;5094831;28;20555;-65
2021/08/22 01:27:50;;;;;;;9.00;6.90;;;19.30;99.90;;;;;;5127729;27;20927;-65
2021/08/22 01:30:18;;;;;;;8.93;6.53;;;19.30;99.90;;;;;;5094575;28;20205;-65
2021/08/22 01:32:46;;;;;;;11.27;6.47;;;19.30;99.90;;;;;;5094562;28;20425;-65
2021/08/22 01:35:13;;;;;;;8.70;6.60;;;19.30;99.90;;;;;;5094522;28;20439;-64
2021/08/22 01:37:40;;;;;;;8.60;6.03;;;19.20;99.90;;;;;;5094886;28;20427;-65
2021/08/22 01:40:09;;;;;;;8.13;5.60;;;19.20;99.90;;;;;;5109999;28;20520;-65
2021/08/22 01:42:37;;;;;;;7.80;5.63;;;19.20;99.90;;;;;;5094865;28;20412;-65
2021/08/22 01:45:07;;;;;;;9.80;6.63;;;19.20;99.90;;;;;;5094365;28;20442;-65
2021/08/22 01:47:39;;;;;;;10.33;5.50;;;19.20;99.90;;;;;;5110175;28;20419;-65
2021/08/22 01:50:06;;;;;;;7.90;5.60;;;19.20;99.90;;;;;;5094466;28;20776;-65
2021/08/22 01:52:33;;;;;;;6.33;5.70;;;19.20;99.90;;;;;;5094557;28;20409;-65
2021/08/22 01:55:01;;;;;;;8.90;6.13;;;19.10;99.90;;;;;;5094210;28;20934;-65
2021/08/22 01:57:26;;;;;;;8.80;5.93;;;19.10;99.90;;;;;;5094593;28;20459;-65
2021/08/22 01:59:52;;;;;;;8.03;4.70;;;19.10;99.90;;;;;;5094013;28;20501;-65
2021/08/22 02:02:17;;;;;;;13.53;6.60;;;19.10;99.90;;;;;;5094257;28;20180;-66
2021/08/22 02:04:52;;;;;;;7.30;5.77;;;19.10;99.90;;;;;;5126891;27;20227;-64
2021/08/22 02:07:20;;;;;;;7.50;5.27;;;19.10;99.90;;;;;;5094422;28;20189;-65
2021/08/22 02:10:06;;;;;;;9.40;5.80;;;19.10;99.90;;;;;;5094030;28;20443;-65
2021/08/22 02:12:32;;;;;;;8.87;6.07;;;19.00;99.90;;;;;;5094510;28;20432;-65
2021/08/22 02:15:27;;;;;;;6.07;5.33;;;19.00;99.90;;;;;;5094045;28;20440;-65
2021/08/22 02:18:04;;;;;;;6.10;5.40;;;19.00;99.90;;;;;;5109762;28;20428;-65
2021/08/22 02:20:31;;;;;;;6.00;5.40;;;19.00;99.90;;;;;;5092568;28;20476;-65
2021/08/22 02:22:58;;;;;;;7.20;5.50;;;18.90;99.90;;;;;;5094197;28;20413;-64
2021/08/22 02:25:28;;;;;;;8.60;5.07;;;18.90;99.90;;;;;;5093943;28;20475;-65
2021/08/22 02:27:56;;;;;;;10.43;5.23;;;18.80;99.90;;;;;;5094190;28;20432;-65
2021/08/22 02:30:21;;;;;;;7.87;5.40;;;18.80;99.90;;;;;;5093861;28;20469;-64
2021/08/22 02:32:47;;;;;;;5.90;4.80;;;18.80;99.90;;;;;;5093751;28;20420;-65
2021/08/22 02:35:12;;;;;;;6.07;4.67;;;18.80;99.90;;;;;;5093692;28;20196;-65
2021/08/22 02:37:38;;;;;;;7.37;5.70;;;18.70;99.90;;;;;;5094077;28;20214;-65
2021/08/22 02:40:04;;;;;;;7.53;6.00;;;18.70;99.90;;;;;;5093641;28;20216;-65
2021/08/22 02:42:30;;;;;;;6.90;4.70;;;18.70;99.90;;;;;;5093951;28;20254;-65
2021/08/22 02:44:55;;;;;;;10.17;5.60;;;18.70;99.90;;;;;;5126538;28;20473;-66
2021/08/22 02:47:21;;;;;;;5.87;5.00;;;18.70;99.90;;;;;;5093810;28;20172;-65
2021/08/22 02:49:46;;;;;;;9.10;5.23;;;18.60;99.90;;;;;;5093568;28;20211;-65
2021/08/22 02:52:12;;;;;;;9.13;5.03;;;18.60;99.90;;;;;;5093780;28;20502;-65
2021/08/22 02:54:38;;;;;;;6.87;5.53;;;18.60;99.90;;;;;;5093696;28;20192;-64
2021/08/22 02:57:03;;;;;;;7.50;5.80;;;18.60;99.90;;;;;;5093714;28;20185;-65
2021/08/22 02:59:29;;;;;;;6.37;5.20;;;18.60;99.90;;;;;;5093444;28;20264;-65
2021/08/22 03:01:54;;;;;;;7.77;5.60;;;18.50;99.90;;;;;;5093744;28;20694;-65
2021/08/22 03:04:20;;;;;;;8.60;5.23;;;18.50;99.90;;;;;;5093415;28;20179;-65
2021/08/22 03:06:46;;;;;;;6.50;5.20;;;18.50;99.90;;;;;;5093545;28;20181;-64
2021/08/22 03:09:11;;;;;;;6.50;4.67;;;18.50;99.90;;;;;;5093391;28;20172;-66
2021/08/22 03:11:37;;;;;;;8.23;5.13;;;18.50;99.90;;;;;;5093460;28;20191;-64
2021/08/22 03:14:03;;;;;;;8.77;5.70;;;18.40;99.90;;;;;;5093401;28;20638;-66
2021/08/22 03:16:29;;;;;;;7.03;5.07;;;18.40;99.90;;;;;;5093224;28;20425;-64
2021/08/22 03:18:54;;;;;;;8.70;5.23;;;18.40;99.90;;;;;;5109013;28;20307;-64
2021/08/22 03:21:20;;;;;;;5.80;4.80;;;18.40;99.90;;;;;;5108905;28;20514;-64
2021/08/22 03:23:46;;;;;;;6.20;5.60;;;18.40;99.90;;;;;;5093214;28;20273;-65
2021/08/22 03:26:12;;;;;;;6.43;5.30;;;18.40;99.90;;;;;;5093136;28;20189;-64
2021/08/22 03:28:37;;;;;;;6.60;5.17;;;18.40;99.90;;;;;;5126290;28;20211;-64
2021/08/22 03:31:04;;;;;;;7.00;5.37;;;18.40;99.90;;;;;;5093118;28;20188;-65
2021/08/22 03:33:29;;;;;;;6.13;5.33;;;18.40;99.90;;;;;;5093862;28;20231;-65
2021/08/22 03:35:55;;;;;;;4.83;4.40;;;18.40;99.90;;;;;;5125982;28;20425;-64
2021/08/22 03:38:21;;;;;;;6.17;4.77;;;18.40;99.90;;;;;;5093704;28;20263;-65
2021/08/22 03:40:46;;;;;;;7.80;6.40;;;18.40;99.90;;;;;;5125869;28;20227;-65
2021/08/22 03:43:12;;;;;;;6.37;5.60;;;18.30;99.90;;;;;;5093589;28;20188;-64
2021/08/22 03:45:38;;;;;;;5.10;4.60;;;18.30;99.90;;;;;;5095039;28;20203;-66
2021/08/22 03:48:04;;;;;;;7.10;4.90;;;18.20;99.90;;;;;;5112561;28;20179;-64
2021/08/22 03:50:29;;;;;;;7.80;5.70;;;18.20;99.90;;;;;;5096609;28;20197;-64
2021/08/22 03:52:55;;;;;;;8.00;4.80;;;18.20;99.90;;;;;;5096859;28;20886;-65
2021/08/22 03:55:21;;;;;;;5.80;4.57;;;18.20;99.90;;;;;;5096519;28;20219;-65
2021/08/22 03:57:47;;;;;;;7.87;5.57;;;18.10;99.90;;;;;;5112115;28;20180;-65
2021/08/22 04:00:14;;;;;;;9.73;5.43;;;18.10;99.90;;;;;;5096285;28;20517;-65
2021/08/22 04:02:40;;;;;;;5.83;5.23;;;18.10;99.90;;;;;;5095227;28;20208;-65
2021/08/22 04:05:08;;;;;;;6.90;5.30;;;18.10;99.90;;;;;;5096476;28;20486;-64
2021/08/22 04:07:34;;;;;;;10.03;5.10;;;18.10;99.90;;;;;;5096649;28;20448;-65
2021/08/22 04:10:00;;;;;;;9.43;4.87;;;18.10;99.90;;;;;;5096106;28;20512;-66
2021/08/22 04:12:27;;;;;;;11.43;5.57;;;18.10;99.90;;;;;;5096176;28;20477;-65
2021/08/22 04:14:53;;;;;;;9.60;5.87;;;18.10;99.90;;;;;;5096152;28;20591;-65
2021/08/22 04:17:18;;;;;;;6.93;5.70;;;18.10;99.90;;;;;;5094804;28;20523;-64
2021/08/22 04:19:44;;;;;;;10.40;5.93;;;18.20;99.90;;;;;;5095959;28;20220;-64
2021/08/22 04:22:10;;;;;;;9.80;5.67;;;18.10;99.90;;;;;;5095868;28;20238;-65
2021/08/22 04:24:36;;;;;;;7.00;5.60;;;18.20;99.90;;;;;;5095932;28;20311;-66
2021/08/22 04:27:04;;;;;;;13.87;5.60;;;18.20;99.90;;;;;;5096082;28;20894;-65
2021/08/22 04:29:30;;;;;;;8.53;5.73;;;18.20;99.90;;;;;;5095859;28;20416;-64
2021/08/22 04:31:56;;;;;;;6.67;5.60;;;18.20;99.90;;;;;;5095942;28;20500;-65
2021/08/22 04:34:22;;;;;;;6.77;4.80;;;18.20;99.90;;;;;;5094503;28;20505;-65
2021/08/22 04:36:48;;;;;;;8.53;5.47;;;18.20;99.90;;;;;;5111508;28;20221;-65
2021/08/22 04:39:15;;;;;;;6.77;5.73;;;18.20;99.90;;;;;;5095514;28;20212;-64
2021/08/22 04:41:45;;;;;;;8.87;5.30;;;18.20;99.90;;;;;;5095742;28;20413;-65
2021/08/22 04:44:12;;;;;;;12.50;6.00;;;18.20;99.90;;;;;;5094347;28;20816;-65
2021/08/22 04:46:37;;;;;;;7.63;5.90;;;18.20;99.90;;;;;;5111267;28;20435;-65
2021/08/22 04:49:03;;;;;;;15.83;6.87;;;18.20;99.90;;;;;;5095563;28;20500;-66
2021/08/22 04:51:29;;;;;;;7.80;6.20;;;18.30;99.90;;;;;;5095397;28;20658;-65
2021/08/22 04:53:56;;;;;;;8.97;5.40;;;18.30;99.90;;;;;;5095395;28;20257;-65
2021/08/22 04:56:22;;;;;;;11.00;6.30;;;18.30;99.90;;;;;;5127851;27;20741;-65
2021/08/22 04:58:48;;;;;;;6.80;5.30;;;18.40;99.90;;;;;;5095372;28;20409;-66
2021/08/22 05:01:14;;;;;;;8.63;6.07;;;18.40;99.90;;;;;;5095197;28;20455;-65
2021/08/22 05:03:39;;;;;;;10.30;6.10;;;18.40;99.90;;;;;;5095704;28;20417;-65
2021/08/22 05:06:05;;;;;;;7.20;5.83;;;18.50;99.90;;;;;;5095144;28;20185;-64
2021/08/22 05:08:30;;;;;;;7.50;6.27;;;18.60;99.90;;;;;;5095593;28;20181;-64
2021/08/22 05:10:57;;;;;;;10.60;5.90;;;18.60;99.90;;;;;;5095030;28;20231;-66
2021/08/22 05:13:23;;;;;;;8.33;5.80;;;18.70;99.90;;;;;;5095561;28;20187;-65
2021/08/22 05:15:50;;;;;;;12.30;5.80;;;18.70;99.90;;;;;;5094999;28;20434;-64
2021/08/22 05:18:23;;;;;;;8.10;5.43;;;18.80;99.90;;;;;;5095419;28;20937;-64
2021/08/22 05:20:49;;;;;;;9.87;6.27;;;18.80;99.90;;;;;;5093461;28;20476;-64
2021/08/22 05:23:16;;;;;;;9.30;6.47;;;18.90;99.90;;;;;;5095108;28;20746;-64
2021/08/22 05:25:42;;;;;;;7.30;5.73;;;19.00;99.90;;;;;;5094941;28;20518;-65
2021/08/22 05:28:08;;;;;;;8.90;5.90;;;19.10;99.90;;;;;;5095152;28;20453;-65
2021/08/22 05:30:34;;;;;;;6.57;5.83;;;19.10;99.90;;;;;;5094700;28;20682;-65
2021/08/22 05:32:59;;;;;;;9.70;6.40;;;19.20;99.90;;;;;;5094974;28;20189;-65
2021/08/22 05:35:25;;;;;;;10.20;6.40;;;19.30;99.90;;;;;;5094627;28;20430;-65
2021/08/22 05:37:51;;;;;;;10.23;7.10;;;19.40;99.90;;;;;;5094908;28;20510;-66
2021/08/22 05:40:16;;;;;;;12.23;7.80;;;19.50;99.90;;;;;;5093098;28;20233;-65
2021/08/22 05:42:42;;;;;;;8.40;7.30;;;19.50;99.90;;;;;;5094846;28;20610;-65
2021/08/22 05:45:08;;;;;;;11.33;6.70;;;19.60;99.90;;;;;;5094408;28;20674;-65
2021/08/22 05:47:33;;;;;;;9.50;6.80;;;19.70;99.90;;;;;;5094818;28;20258;-65
2021/08/22 05:49:59;;;;;;;8.43;7.63;;;19.80;99.90;;;;;;5094336;28;20426;-64
2021/08/22 05:52:25;;;;;;;9.77;7.97;;;19.90;99.90;;;;;;5094494;28;20635;-65
2021/08/22 05:54:50;;;;;;;11.17;7.40;;;20.00;99.90;;;;;;5094294;28;20218;-66
2021/08/22 05:57:16;;;;;;;9.40;7.37;;;20.10;99.90;;;;;;5127154;27;20664;-64
2021/08/22 05:59:42;;;;;;;9.30;7.40;;;20.20;99.90;;;;;;5126972;27;20225;-65
2021/08/22 06:02:07;;;;;;;7.47;6.73;;;20.40;99.90;;;;;;5094289;28;20488;-66
2021/08/22 06:04:33;;;;;;;7.70;6.63;;;20.50;99.90;;;;;;5094112;28;20568;-65
2021/08/22 06:06:58;;;;;;;7.00;6.30;;;20.60;99.90;;;;;;5093842;28;20175;-65
2021/08/22 06:09:24;;;;;;;6.80;6.10;;;20.70;99.90;;;;;;5093643;28;20182;-65
2021/08/22 06:11:50;;;;;;;7.67;6.40;;;20.80;99.90;;;;;;5126816;27;20510;-65
2021/08/22 06:14:16;;;;;;;7.33;6.40;;;21.00;99.90;;;;;;5092741;28;20294;-64
2021/08/22 06:16:42;;;;;;;10.93;6.30;;;21.10;99.90;;;;;;5094022;28;20988;-66
2021/08/22 06:19:07;;;;;;;8.40;5.77;;;21.20;99.90;;;;;;5109583;28;20631;-66
2021/08/22 06:21:33;;;;;;;7.27;5.87;;;21.30;99.90;;;;;;5126588;27;20208;-65
2021/08/22 06:23:59;;;;;;;6.10;5.40;;;21.40;99.90;;;;;;5093734;28;20258;-65
2021/08/22 06:26:26;;;;;;;6.73;5.20;;;21.50;99.90;;;;;;5126685;27;20658;-64
2021/08/22 06:28:52;;;;;;;6.70;5.90;;;21.70;99.90;;;;;;5126699;27;20233;-66
2021/08/22 06:31:18;;;;;;;6.03;4.80;;;21.80;99.90;;;;;;5109465;28;20514;-65
2021/08/22 06:33:45;;;;;;;7.33;4.80;;;21.90;99.90;;;;;;5094359;28;20416;-65
2021/08/22 06:36:11;;;;;;;5.17;4.67;;;22.10;99.90;;;;;;5093685;28;20450;-66
2021/08/22 06:38:36;;;;;;;5.87;4.80;;;22.20;99.90;;;;;;5094272;28;20514;-65
2021/08/22 06:41:02;;;;;;;4.60;4.20;;;22.40;99.90;;;;;;5093605;28;20712;-65
2021/08/22 06:43:27;;;;;;;5.47;4.83;;;22.50;99.90;;;;;;5094192;28;20168;-65
2021/08/22 06:45:53;;;;;;;7.03;4.67;;;22.60;99.90;;;;;;5093717;28;20721;-65
2021/08/22 06:48:19;;;;;;;5.13;4.67;;;22.80;99.90;;;;;;5092500;28;20181;-66
2021/08/22 06:50:45;;;;;;;5.87;4.87;;;22.90;99.90;;;;;;5093609;28;20235;-65
2021/08/22 06:53:11;;;;;;;6.13;4.50;;;23.00;99.90;;;;;;5094028;28;20179;-66
2021/08/22 06:55:36;;;;;;;5.73;4.63;;;23.20;99.90;;;;;;5093659;28;20824;-66
2021/08/22 06:58:02;;;;;;;5.80;4.67;;;23.30;99.90;;;;;;5092404;28;20922;-65
2021/08/22 07:00:28;;;;;;;7.20;4.63;;;23.30;99.90;;;;;;5093358;28;20728;-65
2021/08/22 07:02:53;;;;;;;6.00;4.57;;;23.40;99.90;;;;;;5093941;28;20611;-65
2021/08/22 07:05:19;;;;;;;5.17;4.10;;;23.60;99.90;;;;;;5093419;28;20197;-65
2021/08/22 07:07:45;;;;;;;5.33;4.83;;;23.70;99.90;;;;;;5093687;28;20544;-65
2021/08/22 07:10:11;;;;;;;6.23;4.73;;;23.80;99.90;;;;;;5093364;28;20240;-65
2021/08/22 07:12:36;;;;;;;5.23;4.73;;;24.00;99.90;;;;;;5093743;28;20195;-65
2021/08/22 07:15:03;;;;;;;5.23;4.50;;;24.10;99.90;;;;;;5093375;28;20422;-65
2021/08/22 07:17:29;;;;;;;4.37;3.60;;;24.20;99.90;;;;;;5093619;28;20169;-67
2021/08/22 07:19:55;;;;;;;5.03;3.70;;;24.40;99.90;;;;;;5094533;28;20548;-66
2021/08/22 07:22:21;;;;;;;5.93;3.87;;;24.50;99.90;;;;;;5096070;28;20178;-65
2021/08/22 07:24:46;;;;;;;4.70;4.23;;;24.70;99.90;;;;;;5112853;28;20249;-65
2021/08/22 07:27:12;;;;;;;5.90;4.80;;;24.80;99.90;;;;;;5097300;28;20177;-65
2021/08/22 07:29:38;;;;;;;4.40;4.00;;;24.90;99.90;;;;;;5129914;27;20221;-67
2021/08/22 07:32:05;;;;;;;5.17;4.67;;;25.00;99.90;;;;;;5095870;28;20269;-66
2021/08/22 07:34:30;;;;;;;4.70;3.60;;;25.10;99.90;;;;;;5096886;28;20180;-65
2021/08/22 07:36:56;;;;;;;4.77;4.27;;;25.20;99.90;;;;;;5097001;28;20411;-65
2021/08/22 07:39:21;;;;;;;4.00;3.60;;;25.30;99.90;;;;;;5095507;28;20227;-66
2021/08/22 07:41:47;;;;;;;4.40;3.77;;;25.40;99.90;;;;;;5097077;28;20170;-66
2021/08/22 07:44:13;;;;;;;4.27;3.87;;;25.50;99.90;;;;;;5096681;28;20255;-65
2021/08/22 07:46:38;;;;;;;5.13;4.33;;;25.60;99.90;;;;;;5096839;28;20179;-65
2021/08/22 07:49:04;;;;;;;5.10;4.70;;;25.70;99.90;;;;;;5096765;28;20178;-66
2021/08/22 07:51:30;;;;;;;4.10;3.43;;;25.80;99.90;;;;;;5096536;28;20192;-66
2021/08/22 07:53:57;;;;;;;6.53;4.70;;;25.90;99.90;;;;;;5096656;28;20642;-66
2021/08/22 07:56:22;;;;;;;5.50;4.90;;;26.00;99.90;;;;;;5096431;28;20235;-66
2021/08/22 07:58:48;;;;;;;4.60;4.20;;;26.10;99.50;;;;;;5096488;28;20443;-66
2021/08/22 08:01:14;;;;;;;5.33;4.37;;;26.20;99.40;;;;;;5129205;27;20560;-66
2021/08/22 08:03:39;;;;;;;4.13;3.73;;;26.30;98.50;;;;;;5096970;28;20180;-66
2021/08/22 08:06:05;;;;;;;4.43;4.00;;;26.40;98.50;;;;;;5129044;27;20203;-65
2021/08/22 08:08:31;;;;;;;5.43;4.40;;;26.60;98.30;;;;;;5096846;28;20183;-65
2021/08/22 08:10:56;;;;;;;4.07;3.67;;;26.60;98.10;;;;;;5094946;28;20216;-66
2021/08/22 08:13:22;;;;;;;4.50;3.50;;;26.80;98.50;;;;;;5096868;28;20566;-66
2021/08/22 08:15:47;;;;;;;4.10;3.70;;;26.90;98.50;;;;;;5096170;28;20246;-65
2021/08/22 08:18:13;;;;;;;4.40;3.70;;;27.00;98.30;;;;;;5111609;28;20218;-66
2021/08/22 08:20:39;;;;;;;4.50;3.40;;;27.10;97.70;;;;;;5105596;28;20264;-65
2021/08/22 08:23:04;;;;;;;4.87;3.77;;;27.20;97.40;;;;;;5113788;28;20171;-67
2021/08/22 08:25:30;;;;;;;4.93;3.50;;;27.30;96.70;;;;;;5113946;28;20207;-65
2021/08/22 08:27:56;;;;;;;3.03;2.63;;;27.40;96.70;;;;;;5116019;28;20698;-66
2021/08/22 08:30:22;;;;;;;3.60;3.33;;;27.50;96.60;;;;;;5115544;27;20428;-65
2021/08/22 08:32:47;;;;;;;3.90;3.60;;;27.70;96.10;;;;;;5116670;28;20702;-65
2021/08/22 08:35:13;;;;;;;3.67;3.33;;;27.70;96.00;;;;;;5116125;28;20692;-67
2021/08/22 08:37:39;;;;;;;4.80;3.00;;;27.90;95.90;;;;;;5149442;27;20259;-65
2021/08/22 08:40:33;;;;;;;4.40;3.30;;;28.00;95.10;;;;;;5115990;28;20226;-65
2021/08/22 08:43:10;;;;;;;4.40;3.27;;;28.10;95.00;;;;;;5113851;28;20437;-65
2021/08/22 08:45:55;;;;;;;4.77;2.93;;;28.20;94.50;;;;;;5149251;27;21041;-65
2021/08/22 08:48:28;;;;;;;3.03;2.83;;;28.40;94.10;;;;;;5116402;27;20808;-66
2021/08/22 08:51:47;;;;;;;3.13;2.93;;;28.50;93.90;;;;;;5115819;28;20425;-67
2021/08/22 08:54:30;;;;;;;4.20;3.80;;;28.60;94.30;;;;;;5072990;28;20521;-65
2021/08/22 08:57:00;;;;;;;5.63;3.60;;;28.70;93.70;;;;;;5112157;28;20421;-66
2021/08/22 08:59:25;;;;;;;3.27;3.00;;;28.90;93.50;;;;;;5114403;28;20514;-66
2021/08/22 09:01:56;;;;;;;3.50;3.20;;;29.30;94.00;;;;;;5148847;27;20419;-66
2021/08/22 09:04:27;;;;;;;3.40;3.10;;;29.70;92.20;;;;;;5115753;28;20252;-65
2021/08/22 09:07:11;;;;;;;4.93;3.10;;;30.00;91.10;;;;;;5115513;28;20459;-66
2021/08/22 09:10:10;;;;;;;3.57;3.27;;;30.20;91.00;;;;;;5115523;28;20440;-66
2021/08/22 09:13:00;;;;;;;3.37;3.07;;;30.10;90.70;;;;;;5115773;28;20417;-66
2021/08/22 09:16:00;;;;;;;4.60;3.07;;;30.00;90.10;;;;;;5115494;28;20443;-66
2021/08/22 09:19:02;;;;;;;3.60;2.90;;;29.90;90.50;;;;;;5148699;27;20423;-66
2021/08/22 09:21:34;;;;;;;3.50;3.20;;;29.80;88.60;;;;;;5115128;28;20453;-67
2021/08/22 09:24:24;;;;;;;3.33;3.00;;;29.80;90.00;;;;;;5148340;27;21009;-65
2021/08/22 09:27:11;;;;;;;3.20;2.83;;;29.70;90.50;;;;;;5115344;28;20477;-65
2021/08/22 09:30:05;;;;;;;3.80;3.03;;;29.70;90.00;;;;;;5115186;28;20429;-66
2021/08/22 09:32:50;;;;;;;4.53;3.23;;;29.70;90.00;;;;;;5148201;27;20521;-67
2021/08/22 09:35:15;;;;;;;3.80;3.00;;;29.70;90.00;;;;;;5113882;28;20432;-67
2021/08/22 09:38:18;;;;;;;3.90;3.60;;;29.70;90.00;;;;;;5102912;28;20878;-66
2021/08/22 09:40:59;;;;;;;3.90;3.37;;;29.80;89.30;;;;;;5108422;28;20226;-65
2021/08/22 09:43:55;;;;;;;3.20;3.00;;;29.90;89.10;;;;;;5095601;28;20792;-65
2021/08/22 09:46:46;;;;;;;4.00;3.30;;;29.80;88.60;;;;;;5092629;28;21069;-65
2021/08/22 09:49:28;;;;;;;3.20;2.90;;;29.80;90.10;;;;;;5092512;28;20431;-64
2021/08/22 09:52:06;;;;;;;4.50;3.20;;;29.80;90.20;;;;;;5093645;28;20943;-65
2021/08/22 09:54:44;;;;;;;3.57;3.27;;;29.80;89.00;;;;;;5092556;28;20442;-66
2021/08/22 09:57:47;;;;;;;4.53;3.37;;;29.80;88.60;;;;;;5092357;28;20421;-65
2021/08/22 10:00:43;;;;;;;3.67;3.37;;;29.80;88.60;;;;;;5091907;28;20986;-66
2021/08/22 10:03:36;;;;;;;3.80;3.40;;;29.80;89.10;;;;;;5092401;28;20430;-64
2021/08/22 10:06:26;;;;;;;3.53;3.27;;;29.80;89.30;;;;;;5124761;27;20499;-64
2021/08/22 10:09:07;;;;;;;3.23;3.03;;;29.90;88.80;;;;;;5125451;27;20426;-65
2021/08/22 10:11:39;;;;;;;4.07;3.77;;;29.90;88.00;;;;;;5099176;28;20472;-65
2021/08/22 10:14:09;;;;;;;4.83;3.97;;;30.00;89.00;;;;;;5112312;28;20411;-65
2021/08/22 10:16:37;;;;;;;3.97;3.67;;;30.00;87.40;;;;;;5111993;28;20460;-64
2021/08/22 10:19:09;;;;;;;3.50;2.97;;;30.10;88.30;;;;;;5094478;28;20435;-66
2021/08/22 10:21:35;;;;;;;3.53;3.17;;;30.10;89.00;;;;;;5092248;28;20454;-64
2021/08/22 10:24:36;;;;;;;3.27;2.97;;;30.10;88.10;;;;;;5124916;27;20499;-64
2021/08/22 10:27:06;;;;;;;4.30;3.90;;;30.20;87.50;;;;;;5088533;28;20444;-64
2021/08/22 10:29:47;;;;;;;5.13;3.03;;;30.20;87.60;;;;;;5090898;28;20490;-65
2021/08/22 10:32:14;;;;;;;3.77;3.47;;;30.30;87.70;;;;;;5092607;28;20415;-64
2021/08/22 10:34:41;;;;;;;3.60;3.30;;;30.40;86.40;;;;;;5092400;28;20434;-64
2021/08/22 10:37:25;;;;;;;3.53;3.23;;;30.40;86.40;;;;;;5093864;28;20421;-66
2021/08/22 10:39:51;;;;;;;4.03;3.63;;;30.40;87.10;;;;;;5093617;28;20462;-64
2021/08/22 10:42:22;;;;;;;3.47;3.17;;;30.40;87.40;;;;;;5092517;28;20419;-64
2021/08/22 10:44:47;;;;;;;4.13;3.40;;;30.50;85.80;;;;;;5091249;28;20563;-64
2021/08/22 10:47:19;;;;;;;4.20;3.53;;;30.50;85.10;;;;;;5103934;28;20507;-64
2021/08/22 10:49:54;;;;;;;3.83;3.53;;;30.50;85.30;;;;;;5098835;28;20467;-66
2021/08/22 10:52:30;;;;;;;4.13;3.23;;;30.50;85.10;;;;;;5138846;27;20461;-65
2021/08/22 10:55:11;;;;;;;4.10;3.67;;;30.60;85.60;;;;;;5105815;28;20472;-63
2021/08/22 10:57:45;;;;;;;3.90;3.60;;;30.50;86.60;;;;;;5118386;28;20914;-65
2021/08/22 11:00:24;;;;;;;5.73;3.50;;;30.50;86.30;;;;;;5117801;28;20470;-65
2021/08/22 11:02:51;;;;;;;3.30;3.10;;;30.50;86.00;;;;;;5118329;28;20427;-66
2021/08/22 11:05:18;;;;;;;4.43;3.30;;;30.60;84.40;;;;;;5115633;28;20646;-65
2021/08/22 11:07:51;;;;;;;3.73;3.43;;;30.50;83.60;;;;;;5101492;28;20442;-66
2021/08/22 11:10:24;;;;;;;3.93;3.53;;;30.50;84.70;;;;;;5134537;27;20946;-64
2021/08/22 11:12:54;;;;;;;4.17;3.47;;;30.50;85.70;;;;;;5101907;28;20431;-66
2021/08/22 11:15:28;;;;;;;3.30;3.00;;;30.50;86.40;;;;;;5111349;28;20458;-64
2021/08/22 11:17:55;;;;;;;3.50;3.20;;;30.40;85.30;;;;;;5117873;28;20765;-64
2021/08/22 11:20:23;;;;;;;4.30;3.23;;;30.50;85.60;;;;;;5117658;28;20556;-64
2021/08/22 11:22:55;;;;;;;3.70;3.40;;;30.50;84.70;;;;;;5146932;27;20473;-64
2021/08/22 11:25:26;;;;;;;4.13;3.60;;;30.50;83.90;;;;;;5107782;28;20480;-64
2021/08/22 11:28:03;;;;;;;4.83;3.97;;;30.50;83.60;;;;;;5104222;27;20447;-64
2021/08/22 11:30:29;;;;;;;3.90;3.50;;;30.60;84.50;;;;;;5116523;28;20429;-64
2021/08/22 11:32:54;;;;;;;4.30;3.90;;;30.60;83.80;;;;;;5116116;28;20940;-66
2021/08/22 11:35:21;;;;;;;3.83;3.33;;;30.60;84.50;;;;;;5137653;27;20817;-64
2021/08/22 11:37:47;;;;;;;3.67;3.43;;;30.60;83.30;;;;;;5093921;28;20186;-65
2021/08/22 11:40:19;;;;;;;4.70;3.37;;;30.60;83.40;;;;;;5094280;28;20524;-64
2021/08/22 11:42:50;;;;;;;3.40;3.20;;;30.70;83.40;;;;;;5098121;28;20430;-65
2021/08/22 11:45:20;;;;;;;3.83;3.50;;;30.70;83.40;;;;;;5113912;28;20796;-64
2021/08/22 11:47:46;;;;;;;3.90;3.50;;;30.80;83.50;;;;;;5097010;28;20422;-65
2021/08/22 11:50:15;;;;;;;4.10;3.70;;;30.80;84.00;;;;;;5103023;28;20440;-66
2021/08/22 11:52:46;;;;;;;3.80;3.50;;;30.80;83.30;;;;;;5115130;27;20449;-64
2021/08/22 11:55:13;;;;;;;4.40;3.60;;;30.90;82.70;;;;;;5114842;28;20514;-64
2021/08/22 11:57:39;;;;;;;3.77;3.47;;;31.00;82.30;;;;;;5114834;27;20418;-64
2021/08/22 12:00:08;;;;;;;4.10;3.70;;;31.00;82.40;;;;;;5114665;28;20884;-65
2021/08/22 12:02:34;;;;;;;4.10;3.50;;;31.00;82.80;;;;;;5110873;28;20902;-65
2021/08/22 12:05:27;;;;;;;3.90;3.60;;;31.00;83.10;;;;;;5114686;27;20445;-64
2021/08/22 12:08:09;;;;;;;4.40;4.00;;;31.10;82.30;;;;;;5094961;28;20433;-64
2021/08/22 12:10:40;;;;;;;3.73;3.40;;;31.10;82.10;;;;;;5096295;28;20892;-66
2021/08/22 12:13:16;;;;;;;4.90;3.70;;;31.10;80.70;;;;;;5096591;28;20404;-65
2021/08/22 12:15:43;;;;;;;3.60;3.30;;;31.10;82.30;;;;;;5095705;28;20441;-64
2021/08/22 12:18:27;;;;;;;4.57;3.70;;;31.10;81.90;;;;;;5095095;28;20829;-64
2021/08/22 12:21:15;;;;;;;3.83;3.40;;;31.10;80.90;;;;;;5105008;28;20510;-64
2021/08/22 12:23:43;;;;;;;3.93;3.63;;;31.10;82.90;;;;;;5094702;28;20466;-64
2021/08/22 12:26:30;;;;;;;3.73;3.30;;;31.10;82.30;;;;;;5093639;28;20432;-63
2021/08/22 12:28:56;;;;;;;3.90;3.50;;;31.10;81.20;;;;;;5094648;28;20423;-66
2021/08/22 12:31:33;;;;;;;4.03;3.67;;;31.20;82.10;;;;;;5094375;28;20422;-66
2021/08/22 12:34:04;;;;;;;5.53;3.17;;;31.10;82.30;;;;;;5095050;28;20899;-64
2021/08/22 12:37:06;;;;;;;4.20;3.80;;;31.00;82.10;;;;;;5094462;28;20438;-65
2021/08/22 12:39:31;;;;;;;4.00;3.60;;;31.00;82.30;;;;;;5093332;28;20470;-64
2021/08/22 12:41:57;;;;;;;3.90;3.37;;;31.00;81.60;;;;;;5091563;28;20436;-63
2021/08/22 12:44:24;;;;;;;3.67;3.37;;;31.00;81.80;;;;;;5091714;28;20251;-64
2021/08/22 12:46:52;;;;;;;3.57;3.27;;;31.00;81.00;;;;;;5091715;28;20180;-64
2021/08/22 12:49:18;;;;;;;3.70;3.17;;;30.90;80.40;;;;;;5091929;28;20791;-64
2021/08/22 12:51:55;;;;;;;3.67;3.10;;;30.90;80.80;;;;;;5091287;28;20481;-65
2021/08/22 12:54:22;;;;;;;4.23;3.83;;;30.90;81.80;;;;;;5092023;28;20415;-65
2021/08/22 12:56:49;;;;;;;4.13;3.83;;;30.90;81.10;;;;;;5093955;28;20885;-66
2021/08/22 12:59:15;;;;;;;3.77;3.37;;;30.90;82.20;;;;;;5095060;28;20580;-64